createdAt,value
2023-01-27T00:01:43.970Z,96276.94
2023-01-27T00:04:16.859Z,96272.72
2023-01-27T00:06:51.173Z,96278.19
2023-01-27T00:09:24.086Z,96277.41
2023-01-27T00:12:14.250Z,96284.56
2023-01-27T00:14:47.126Z,96277.22
2023-01-27T00:17:20.003Z,96275.13
2023-01-27T00:19:52.877Z,96275.41
2023-01-27T00:22:44.753Z,96272.75
2023-01-27T00:25:18.184Z,96275.19
2023-01-27T00:27:51.048Z,96279.19
2023-01-27T00:30:24.016Z,96266.25
2023-01-27T00:33:14.385Z,96269.97
2023-01-27T00:35:47.565Z,96266.84
2023-01-27T00:38:21.725Z,96261.03
2023-01-27T00:41:11.988Z,96263.69
2023-01-27T00:43:44.964Z,96263.41
2023-01-27T00:46:19.527Z,96255.47
2023-01-27T00:48:53.071Z,96253.63
2023-01-27T00:51:26.021Z,96259.38
2023-01-27T00:54:03.050Z,96262.25
2023-01-27T00:56:36.033Z,96254.84
2023-01-27T00:59:08.987Z,96257.47
2023-01-27T01:01:41.998Z,96257.19
2023-01-27T01:04:14.903Z,96256.09
2023-01-27T01:06:47.760Z,96263.75
2023-01-27T01:09:22.076Z,96261.63
2023-01-27T01:11:54.964Z,96268.75
2023-01-27T01:14:27.810Z,96255.53
2023-01-27T01:17:00.755Z,96259.47
2023-01-27T01:19:34.040Z,96265.28
2023-01-27T01:22:06.938Z,96268.69
2023-01-27T01:24:41.501Z,96264.50
2023-01-27T01:27:14.456Z,96261.84
2023-01-27T01:29:47.305Z,96259.19
2023-01-27T01:32:20.519Z,96263.69
2023-01-27T01:34:53.375Z,96260.28
2023-01-27T01:37:26.241Z,96256.03
2023-01-27T01:40:00.471Z,96256.84
2023-01-27T01:42:51.927Z,96258.41
2023-01-27T01:45:57.402Z,96250.16
2023-01-27T01:48:36.100Z,96240.38
2023-01-27T01:51:13.581Z,96243.34
2023-01-27T01:53:52.762Z,96237.72
2023-01-27T01:56:31.733Z,96239.59
2023-01-27T01:59:08.839Z,96232.44
2023-01-27T02:01:41.760Z,96229.00
2023-01-27T02:04:20.189Z,96215.50
2023-01-27T02:07:00.127Z,96224.72
2023-01-27T02:09:33.292Z,96219.72
2023-01-27T02:12:07.935Z,96217.28
2023-01-27T02:14:42.380Z,96224.16
2023-01-27T02:17:19.357Z,96223.38
2023-01-27T02:19:59.207Z,96219.66
2023-01-27T02:22:48.271Z,96219.66
2023-01-27T02:25:28.351Z,96210.44
2023-01-27T02:28:03.452Z,96225.22
2023-01-27T02:30:36.952Z,96209.63
2023-01-27T02:33:12.750Z,96218.88
2023-01-27T02:35:53.038Z,96215.44
2023-01-27T02:38:26.608Z,96214.94
2023-01-27T02:41:03.777Z,96217.28
2023-01-27T02:43:37.996Z,96214.66
2023-01-27T02:46:11.307Z,96225.75
2023-01-27T02:48:44.235Z,96216.69
2023-01-27T02:51:17.192Z,96219.06
2023-01-27T02:53:50.105Z,96213.78
2023-01-27T02:56:24.142Z,96205.56
2023-01-27T02:58:58.402Z,96212.94
2023-01-27T03:01:32.705Z,96207.91
2023-01-27T03:04:06.094Z,96200.47
2023-01-27T03:06:39.482Z,96205.47
2023-01-27T03:09:12.393Z,96199.41
2023-01-27T03:12:02.593Z,96191.16
2023-01-27T03:14:54.456Z,96193.25
2023-01-27T03:17:44.766Z,96201.19
2023-01-27T03:20:18.239Z,96205.97
2023-01-27T03:22:51.607Z,96195.66
2023-01-27T03:25:24.499Z,96200.41
2023-01-27T03:27:57.804Z,96192.22
2023-01-27T03:30:32.438Z,96199.09
2023-01-27T03:33:06.445Z,96199.88
2023-01-27T03:35:48.685Z,96200.69
2023-01-27T03:38:39.386Z,96192.22
2023-01-27T03:41:29.471Z,96193.03
2023-01-27T03:44:19.907Z,96196.16
2023-01-27T03:46:54.224Z,96193.34
2023-01-27T03:49:27.312Z,96195.47
2023-01-27T03:52:00.280Z,96198.69
2023-01-27T03:54:33.310Z,96198.97
2023-01-27T03:57:06.597Z,96198.50
2023-01-27T03:59:39.549Z,96202.50
2023-01-27T04:02:31.593Z,96204.34
2023-01-27T04:05:22.187Z,96205.69
2023-01-27T04:07:55.047Z,96217.34
2023-01-27T04:10:27.891Z,96207.84
2023-01-27T04:12:59.788Z,96216.38
2023-01-27T04:15:32.630Z,96224.59
2023-01-27T04:18:07.121Z,96219.56
2023-01-27T04:20:39.995Z,96220.16
2023-01-27T04:23:12.819Z,96217.81
2023-01-27T04:25:47.662Z,96210.72
2023-01-27T04:28:37.290Z,96216.00
2023-01-27T04:31:13.616Z,96207.09
2023-01-27T04:33:47.869Z,96206.59
2023-01-27T04:36:20.996Z,96198.13
2023-01-27T04:38:53.836Z,96193.44
2023-01-27T04:41:26.887Z,96187.13
2023-01-27T04:43:59.779Z,96187.41
2023-01-27T04:46:33.344Z,96195.34
2023-01-27T04:49:07.967Z,96195.63
2023-01-27T04:51:40.841Z,96192.50
2023-01-27T04:54:13.701Z,96183.28
2023-01-27T04:56:57.565Z,96190.66
2023-01-27T04:59:30.458Z,96197.28
2023-01-27T05:02:04.718Z,96199.16
2023-01-27T05:04:39.651Z,96202.06
2023-01-27T05:07:12.844Z,96203.13
2023-01-27T05:09:45.732Z,96199.97
2023-01-27T05:12:18.587Z,96201.84
2023-01-27T05:14:51.530Z,96202.44
2023-01-27T05:17:24.691Z,96196.06
2023-01-27T05:19:58.903Z,96204.00
2023-01-27T05:22:31.987Z,96198.22
2023-01-27T05:25:05.328Z,96195.84
2023-01-27T05:27:38.406Z,96205.13
2023-01-27T05:30:12.528Z,96206.97
2023-01-27T05:32:45.382Z,96204.91
2023-01-27T05:35:19.772Z,96215.50
2023-01-27T05:37:52.870Z,96216.84
2023-01-27T05:40:25.753Z,96217.91
2023-01-27T05:42:58.637Z,96219.28
2023-01-27T05:45:31.508Z,96210.84
2023-01-27T05:48:04.991Z,96214.53
2023-01-27T05:50:39.197Z,96221.69
2023-01-27T05:53:13.168Z,96224.41
2023-01-27T05:55:46.016Z,96216.75
2023-01-27T05:58:19.189Z,96200.38
2023-01-27T06:00:52.699Z,96208.59
2023-01-27T06:03:25.604Z,96217.59
2023-01-27T06:05:59.867Z,96216.53
2023-01-27T06:08:33.108Z,96214.16
2023-01-27T06:11:06.567Z,96219.44
2023-01-27T06:13:39.929Z,96230.00
2023-01-27T06:16:15.038Z,96221.00
2023-01-27T06:18:48.402Z,96226.31
2023-01-27T06:21:22.648Z,96232.09
2023-01-27T06:23:56.057Z,96239.75
2023-01-27T06:26:29.057Z,96228.38
2023-01-27T06:29:02.223Z,96233.09
2023-01-27T06:31:35.089Z,96239.47
2023-01-27T06:34:08.069Z,96231.22
2023-01-27T06:36:42.359Z,96242.31
2023-01-27T06:39:16.647Z,96244.44
2023-01-27T06:41:51.177Z,96240.75
2023-01-27T06:44:24.063Z,96243.97
2023-01-27T06:46:56.924Z,96260.09
2023-01-27T06:49:29.921Z,96256.16
2023-01-27T06:52:04.298Z,96260.91
2023-01-27T06:54:37.456Z,96266.78
2023-01-27T06:57:10.823Z,96273.91
2023-01-27T06:59:43.726Z,96273.91
2023-01-27T07:02:16.664Z,96273.91
2023-01-27T07:04:49.676Z,96267.63
2023-01-27T07:07:25.584Z,96268.41
2023-01-27T07:09:58.454Z,96271.63
2023-01-27T07:12:31.395Z,96272.69
2023-01-27T07:15:07.806Z,96272.38
2023-01-27T07:17:47.877Z,96279.25
2023-01-27T07:20:20.947Z,96279.75
2023-01-27T07:22:55.269Z,96276.84
2023-01-27T07:25:29.449Z,96289.78
2023-01-27T07:28:03.865Z,96288.97
2023-01-27T07:30:39.114Z,96283.69
2023-01-27T07:33:14.133Z,96284.22
2023-01-27T07:35:50.047Z,96277.06
2023-01-27T07:38:24.548Z,96287.66
2023-01-27T07:40:58.713Z,96280.78
2023-01-27T07:43:31.572Z,96292.94
2023-01-27T07:46:07.214Z,96297.41
2023-01-27T07:48:40.088Z,96295.56
2023-01-27T07:51:13.774Z,96302.13
2023-01-27T07:53:48.313Z,96301.84
2023-01-27T07:56:21.363Z,96291.56
2023-01-27T07:58:56.279Z,96301.06
2023-01-27T08:01:29.426Z,96293.94
2023-01-27T08:04:02.342Z,96295.00
2023-01-27T08:06:35.234Z,96311.63
2023-01-27T08:09:09.926Z,96302.66
2023-01-27T08:11:43.436Z,96314.00
2023-01-27T08:14:16.428Z,96309.00
2023-01-27T08:16:50.907Z,96296.56
2023-01-27T08:19:26.607Z,96312.66
2023-01-27T08:21:59.512Z,96317.63
2023-01-27T08:24:33.783Z,96309.72
2023-01-27T08:27:08.271Z,96306.88
2023-01-27T08:29:43.413Z,96319.81
2023-01-27T08:32:17.858Z,96329.56
2023-01-27T08:34:50.679Z,96317.16
2023-01-27T08:37:23.604Z,96315.56
2023-01-27T08:39:57.900Z,96324.28
2023-01-27T08:42:30.910Z,96324.28
2023-01-27T08:45:14.649Z,96321.94
2023-01-27T08:47:47.588Z,96326.66
2023-01-27T08:50:20.705Z,96329.84
2023-01-27T08:52:53.753Z,96326.16
2023-01-27T08:55:29.161Z,96317.44
2023-01-27T08:58:02.466Z,96328.00
2023-01-27T09:00:35.372Z,96328.00
2023-01-27T09:03:08.355Z,96331.44
2023-01-27T09:05:41.710Z,96340.66
2023-01-27T09:08:14.903Z,96334.28
2023-01-27T09:10:49.343Z,96339.81
2023-01-27T09:13:23.285Z,96341.13
2023-01-27T09:15:56.491Z,96331.34
2023-01-27T09:18:29.547Z,96342.91
2023-01-27T09:21:05.062Z,96338.13
2023-01-27T09:23:38.157Z,96335.22
2023-01-27T09:26:12.411Z,96337.56
2023-01-27T09:28:45.424Z,96348.34
2023-01-27T09:31:18.515Z,96343.06
2023-01-27T09:33:51.490Z,96343.53
2023-01-27T09:36:24.544Z,96337.97
2023-01-27T09:39:03.038Z,96337.41
2023-01-27T09:41:54.679Z,96334.69
2023-01-27T09:44:52.520Z,96345.72
2023-01-27T09:47:40.439Z,96350.16
2023-01-27T09:50:30.286Z,96348.22
2023-01-27T09:53:21.322Z,96348.19
2023-01-27T09:56:00.528Z,96349.78
2023-01-27T09:58:54.347Z,96343.88
2023-01-27T10:01:39.674Z,96339.13
2023-01-27T10:04:45.210Z,96336.97
2023-01-27T10:07:30.139Z,96337.19
2023-01-27T10:10:37.071Z,96340.84
2023-01-27T10:13:25.171Z,96342.16
2023-01-27T10:16:23.124Z,96337.06
2023-01-27T10:19:09.435Z,96331.19
2023-01-27T10:21:53.464Z,96327.19
2023-01-27T10:24:41.998Z,96333.19
2023-01-27T10:27:18.734Z,96337.44
2023-01-27T10:29:57.682Z,96340.28
2023-01-27T10:32:44.146Z,96335.50
2023-01-27T10:35:20.912Z,96338.13
2023-01-27T10:38:05.441Z,96329.13
2023-01-27T10:40:48.034Z,96328.84
2023-01-27T10:43:30.252Z,96325.41
2023-01-27T10:46:12.328Z,96326.19
2023-01-27T10:48:51.602Z,96330.69
2023-01-27T10:51:32.462Z,96342.06
2023-01-27T10:54:12.019Z,96339.44
2023-01-27T10:56:49.606Z,96338.38
2023-01-27T10:59:30.742Z,96348.16
2023-01-27T11:02:12.557Z,96346.50
2023-01-27T11:04:47.956Z,96349.16
2023-01-27T11:07:23.019Z,96340.13
2023-01-27T11:09:58.153Z,96343.28
2023-01-27T11:12:34.836Z,96332.19
2023-01-27T11:15:19.793Z,96327.69
2023-01-27T11:17:58.802Z,96337.22
2023-01-27T11:20:36.365Z,96340.66
2023-01-27T11:23:18.587Z,96340.09
2023-01-27T11:25:58.086Z,96334.00
2023-01-27T11:28:38.803Z,96344.00
2023-01-27T11:31:25.095Z,96336.34
2023-01-27T11:34:07.529Z,96332.63
2023-01-27T11:36:43.086Z,96330.28
2023-01-27T11:39:16.453Z,96340.88
2023-01-27T11:41:53.156Z,96335.56
2023-01-27T11:44:29.389Z,96344.28
2023-01-27T11:47:05.243Z,96333.69
2023-01-27T11:49:44.502Z,96337.63
2023-01-27T11:52:21.331Z,96335.25
2023-01-27T11:55:00.563Z,96336.13
2023-01-27T11:57:34.084Z,96334.28
2023-01-27T12:00:14.411Z,96334.00
2023-01-27T12:02:55.280Z,96333.22
2023-01-27T12:05:32.498Z,96333.22
2023-01-27T12:08:07.365Z,96329.50
2023-01-27T12:10:42.900Z,96318.13
2023-01-27T12:13:19.034Z,96318.91
2023-01-27T12:15:55.849Z,96319.97
2023-01-27T12:18:34.360Z,96326.06
2023-01-27T12:21:10.481Z,96312.31
2023-01-27T12:23:53.203Z,96322.63
2023-01-27T12:26:37.857Z,96322.91
2023-01-27T12:29:20.369Z,96322.41
2023-01-27T12:31:55.415Z,96326.72
2023-01-27T12:34:32.620Z,96319.31
2023-01-27T12:37:08.843Z,96321.47
2023-01-27T12:39:47.067Z,96321.28
2023-01-27T12:42:40.092Z,96311.25
2023-01-27T12:45:24.819Z,96316.31
2023-01-27T12:48:01.159Z,96317.97
2023-01-27T12:50:36.060Z,96315.09
2023-01-27T12:53:13.987Z,96313.81
2023-01-27T12:55:53.516Z,96306.72
2023-01-27T12:58:37.629Z,96306.22
2023-01-27T13:01:24.728Z,96310.25
2023-01-27T13:04:01.101Z,96326.97
2023-01-27T13:06:42.301Z,96326.72
2023-01-27T13:09:27.655Z,96314.09
2023-01-27T13:12:03.980Z,96315.72
2023-01-27T13:14:41.406Z,96311.28
2023-01-27T13:17:37.183Z,96317.41
2023-01-27T13:20:20.307Z,96319.56
2023-01-27T13:23:00.612Z,96326.19
2023-01-27T13:25:39.920Z,96324.63
2023-01-27T13:28:19.567Z,96327.53
2023-01-27T13:30:57.679Z,96328.63
2023-01-27T13:33:40.582Z,96342.91
2023-01-27T13:36:21.259Z,96332.63
2023-01-27T13:39:02.297Z,96329.19
2023-01-27T13:41:42.819Z,96328.97
2023-01-27T13:44:27.161Z,96326.31
2023-01-27T13:47:05.597Z,96325.81
2023-01-27T13:49:44.389Z,96326.09
2023-01-27T13:52:17.485Z,96324.53
2023-01-27T13:54:50.377Z,96326.88
2023-01-27T13:57:45.936Z,96326.59
2023-01-27T14:00:24.042Z,96337.44
2023-01-27T14:03:27.542Z,96335.31
2023-01-27T14:06:13.380Z,96336.66
2023-01-27T14:09:00.029Z,96334.81
2023-01-27T14:11:40.249Z,96340.41
2023-01-27T14:14:29.356Z,96344.38
2023-01-27T14:17:26.563Z,96343.88
2023-01-27T14:20:09.660Z,96353.66
2023-01-27T14:22:52.395Z,96342.28
2023-01-27T14:25:35.731Z,96342.28
2023-01-27T14:28:19.189Z,96346.31
2023-01-27T14:30:58.792Z,96337.56
2023-01-27T14:33:50.574Z,96348.16
2023-01-27T14:36:29.221Z,96346.56
2023-01-27T14:39:14.264Z,96351.84
2023-01-27T14:41:54.075Z,96359.00
2023-01-27T14:44:44.143Z,96360.06
2023-01-27T14:47:30.230Z,96368.78
2023-01-27T14:50:22.211Z,96371.44
2023-01-27T14:53:06.525Z,96375.91
2023-01-27T14:55:50.133Z,96375.91
2023-01-27T14:58:39.657Z,96373.56
2023-01-27T15:01:24.750Z,96383.06
2023-01-27T15:04:33.123Z,96373.56
2023-01-27T15:07:33.178Z,96378.84
2023-01-27T15:10:22.957Z,96372.75
2023-01-27T15:13:18.413Z,96370.41
2023-01-27T15:16:13.943Z,96377.78
2023-01-27T15:19:07.419Z,96386.50
2023-01-27T15:21:59.732Z,96375.13
2023-01-27T15:24:51.707Z,96381.22
2023-01-27T15:27:24.903Z,96379.13
2023-01-27T15:30:06.413Z,96390.72
2023-01-27T15:32:39.516Z,96389.41
2023-01-27T15:35:34.709Z,96391.00
2023-01-27T15:38:21.257Z,96398.91
2023-01-27T15:41:12.035Z,96400.78
2023-01-27T15:44:06.162Z,96395.75
2023-01-27T15:46:45.194Z,96407.13
2023-01-27T15:49:22.428Z,96398.41
2023-01-27T15:51:57.930Z,96413.47
2023-01-27T15:54:34.561Z,96409.25
2023-01-27T15:57:26.276Z,96417.69
2023-01-27T16:00:05.597Z,96420.34
2023-01-27T16:02:45.233Z,96420.59
2023-01-27T16:05:23.084Z,96410.03
2023-01-27T16:08:02.693Z,96418.75
2023-01-27T16:10:36.634Z,96419.03
2023-01-27T16:13:36.543Z,96420.59
2023-01-27T16:16:34.363Z,96430.69
2023-01-27T16:19:20.976Z,96423.53
2023-01-27T16:21:59.174Z,96432.53
2023-01-27T16:24:37.482Z,96430.97
2023-01-27T16:27:23.976Z,96439.69
2023-01-27T16:30:00.009Z,96432.03
2023-01-27T16:32:39.635Z,96437.31
2023-01-27T16:35:19.659Z,96436.53
2023-01-27T16:38:03.133Z,96430.44
2023-01-27T16:40:38.737Z,96438.66
2023-01-27T16:43:18.223Z,96438.38
2023-01-27T16:45:55.040Z,96445.50
2023-01-27T16:48:33.886Z,96437.59
2023-01-27T16:51:12.763Z,96431.00
2023-01-27T16:53:49.186Z,96447.41
2023-01-27T16:56:28.226Z,96444.81
2023-01-27T16:59:07.988Z,96440.56
2023-01-27T17:01:48.323Z,96444.06
2023-01-27T17:04:24.058Z,96447.25
2023-01-27T17:06:59.531Z,96458.09
2023-01-27T17:09:35.427Z,96457.59
2023-01-27T17:12:28.265Z,96447.56
2023-01-27T17:15:03.539Z,96452.59
2023-01-27T17:17:40.656Z,96455.53
2023-01-27T17:20:23.912Z,96450.53
2023-01-27T17:22:57.496Z,96459.00
2023-01-27T17:25:34.717Z,96460.31
2023-01-27T17:28:13.393Z,96449.28
2023-01-27T17:30:48.062Z,96454.81
2023-01-27T17:33:22.974Z,96454.81
2023-01-27T17:35:59.263Z,96454.31
2023-01-27T17:38:42.332Z,96459.31
2023-01-27T17:41:36.810Z,96463.00
2023-01-27T17:44:13.823Z,96469.63
2023-01-27T17:46:46.757Z,96468.03
2023-01-27T17:49:21.460Z,96470.97
2023-01-27T17:51:55.795Z,96472.31
2023-01-27T17:54:31.217Z,96472.31
2023-01-27T17:57:08.131Z,96478.09
2023-01-27T17:59:45.129Z,96471.75
2023-01-27T18:02:22.484Z,96474.38
2023-01-27T18:05:02.549Z,96478.34
2023-01-27T18:07:35.518Z,96486.81
2023-01-27T18:10:24.535Z,96472.03
2023-01-27T18:12:57.700Z,96485.72
2023-01-27T18:15:35.285Z,96477.81
2023-01-27T18:18:22.325Z,96486.81
2023-01-27T18:21:07.684Z,96487.09
2023-01-27T18:23:46.629Z,96484.72
2023-01-27T18:26:24.678Z,96503.72
2023-01-27T18:29:04.165Z,96496.59
2023-01-27T18:31:45.338Z,96514.00
2023-01-27T18:34:32.765Z,96502.09
2023-01-27T18:37:29.405Z,96503.94
2023-01-27T18:40:03.330Z,96508.72
2023-01-27T18:42:36.296Z,96517.16
2023-01-27T18:45:13.503Z,96520.84
2023-01-27T18:47:47.016Z,96525.59
2023-01-27T18:50:22.370Z,96507.91
2023-01-27T18:52:56.985Z,96520.84
2023-01-27T18:55:31.451Z,96520.06
2023-01-27T18:58:04.449Z,96513.97
2023-01-27T19:00:41.868Z,96521.38
2023-01-27T19:03:17.977Z,96514.50
2023-01-27T19:05:51.792Z,96524.50
2023-01-27T19:08:26.161Z,96516.56
2023-01-27T19:10:59.098Z,96519.75
2023-01-27T19:13:32.179Z,96526.88
2023-01-27T19:16:10.442Z,96520.81
2023-01-27T19:18:43.608Z,96521.59
2023-01-27T19:21:17.508Z,96533.47
2023-01-27T19:23:51.919Z,96535.84
2023-01-27T19:26:25.307Z,96529.50
2023-01-27T19:28:59.363Z,96532.16
2023-01-27T19:31:32.243Z,96527.66
2023-01-27T19:34:05.308Z,96534.22
2023-01-27T19:36:43.680Z,96527.59
2023-01-27T19:39:20.126Z,96531.84
2023-01-27T19:41:53.090Z,96527.06
2023-01-27T19:44:26.082Z,96531.25
2023-01-27T19:46:58.975Z,96535.75
2023-01-27T19:49:31.888Z,96539.97
2023-01-27T19:52:05.887Z,96526.75
2023-01-27T19:54:40.245Z,96540.19
2023-01-27T19:57:15.894Z,96542.28
2023-01-27T19:59:48.876Z,96536.22
2023-01-27T20:02:21.755Z,96539.38
2023-01-27T20:04:54.674Z,96551.53
2023-01-27T20:07:29.165Z,96543.03
2023-01-27T20:10:03.597Z,96541.97
2023-01-27T20:12:36.569Z,96547.25
2023-01-27T20:15:16.793Z,96540.66
2023-01-27T20:17:49.883Z,96533.78
2023-01-27T20:20:24.327Z,96539.59
2023-01-27T20:22:58.838Z,96534.31
2023-01-27T20:25:34.214Z,96549.88
2023-01-27T20:28:07.957Z,96542.22
2023-01-27T20:30:42.592Z,96540.38
2023-01-27T20:33:15.733Z,96547.50
2023-01-27T20:35:49.089Z,96538.53
2023-01-27T20:38:22.112Z,96545.66
2023-01-27T20:40:56.660Z,96551.75
2023-01-27T20:43:35.124Z,96545.66
2023-01-27T20:46:12.063Z,96544.59
2023-01-27T20:48:45.661Z,96547.25
2023-01-27T20:51:18.814Z,96548.31
2023-01-27T20:53:51.834Z,96548.03
2023-01-27T20:56:26.148Z,96555.97
2023-01-27T20:58:59.067Z,96553.03
2023-01-27T21:01:33.153Z,96550.09
2023-01-27T21:04:06.349Z,96549.63
2023-01-27T21:06:39.323Z,96551.97
2023-01-27T21:09:12.465Z,96555.41
2023-01-27T21:11:47.094Z,96549.31
2023-01-27T21:14:19.933Z,96550.38
2023-01-27T21:16:53.020Z,96552.75
2023-01-27T21:19:26.131Z,96548.00
2023-01-27T21:22:00.251Z,96549.03
2023-01-27T21:24:33.394Z,96549.56
2023-01-27T21:27:07.764Z,96552.72
2023-01-27T21:29:42.355Z,96552.72
2023-01-27T21:32:15.479Z,96544.81
2023-01-27T21:34:48.439Z,96540.56
2023-01-27T21:37:21.428Z,96549.03
2023-01-27T21:39:54.294Z,96541.38
2023-01-27T21:42:45.776Z,96545.28
2023-01-27T21:45:18.641Z,96542.66
2023-01-27T21:47:51.939Z,96541.59
2023-01-27T21:50:24.883Z,96537.38
2023-01-27T21:52:57.839Z,96540.53
2023-01-27T21:55:31.744Z,96540.81
2023-01-27T21:58:06.032Z,96538.41
2023-01-27T22:00:38.964Z,96539.47
2023-01-27T22:03:12.996Z,96538.41
2023-01-27T22:05:45.885Z,96532.59
2023-01-27T22:08:27.767Z,96543.69
2023-01-27T22:11:03.160Z,96541.84
2023-01-27T22:13:38.467Z,96548.13
2023-01-27T22:16:14.055Z,96539.72
2023-01-27T22:18:46.984Z,96542.34
2023-01-27T22:21:19.830Z,96542.34
2023-01-27T22:23:52.889Z,96544.72
2023-01-27T22:26:26.225Z,96545.00
2023-01-27T22:29:00.486Z,96549.50
2023-01-27T22:31:33.365Z,96536.81
2023-01-27T22:34:06.329Z,96548.97
2023-01-27T22:36:39.292Z,96552.94
2023-01-27T22:39:12.601Z,96555.56
2023-01-27T22:41:45.559Z,96553.19
2023-01-27T22:44:21.228Z,96552.41
2023-01-27T22:46:54.206Z,96554.53
2023-01-27T22:49:27.143Z,96547.66
2023-01-27T22:52:00.616Z,96553.22
2023-01-27T22:54:33.625Z,96557.75
2023-01-27T22:57:06.607Z,96556.44
2023-01-27T22:59:40.907Z,96558.81
2023-01-27T23:02:13.844Z,96560.94
2023-01-27T23:04:47.017Z,96554.06
2023-01-27T23:07:19.921Z,96551.41
2023-01-27T23:09:53.541Z,96549.84
2023-01-27T23:12:26.407Z,96543.25
2023-01-27T23:15:01.891Z,96548.25
2023-01-27T23:17:34.821Z,96546.97
2023-01-27T23:20:09.380Z,96541.97
2023-01-27T23:22:42.284Z,96548.03
2023-01-27T23:25:15.843Z,96544.88
2023-01-27T23:27:48.892Z,96550.94
2023-01-27T23:30:23.612Z,96543.28
2023-01-27T23:32:57.297Z,96552.28
2023-01-27T23:35:30.204Z,96553.34
2023-01-27T23:38:03.578Z,96560.22
2023-01-27T23:40:38.346Z,96550.69
2023-01-27T23:43:11.229Z,96551.75
2023-01-27T23:45:52.064Z,96553.59
2023-01-27T23:48:25.403Z,96564.47
2023-01-27T23:50:58.462Z,96554.69
2023-01-27T23:53:31.281Z,96562.91
2023-01-27T23:56:04.817Z,96562.09
2023-01-27T23:58:37.670Z,96555.25
